sensor_id;sensor_type;location;lat;lon;timestamp;P1;durP1;ratioP1;P2;durP2;ratioP2
13455;SDS011;6800;50.940;6.940;2024-03-22T00:02:23;25.57;;;16.63;;
13455;SDS011;6800;50.940;6.940;2024-03-22T00:06:23;26.03;;;17.73;;
13455;SDS011;6800;50.940;6.940;2024-03-22T00:10:24;22.00;;;16.53;;
13455;SDS011;6800;50.940;6.940;2024-03-22T00:14:24;24.60;;;17.97;;
13455;SDS011;6800;50.940;6.940;2024-03-22T00:18:25;23.63;;;16.80;;
13455;SDS011;6800;50.940;6.940;2024-03-22T00:22:25;25.50;;;17.13;;
13455;SDS011;6800;50.940;6.940;2024-03-22T00:26:26;22.37;;;15.77;;
13455;SDS011;6800;50.940;6.940;2024-03-22T00:30:26;22.03;;;16.37;;
13455;SDS011;6800;50.940;6.940;2024-03-22T00:34:27;23.47;;;16.50;;
13455;SDS011;6800;50.940;6.940;2024-03-22T00:38:27;21.77;;;15.93;;
13455;SDS011;6800;50.940;6.940;2024-03-22T00:42:28;21.63;;;16.77;;
13455;SDS011;6800;50.940;6.940;2024-03-22T00:46:28;23.80;;;16.17;;
13455;SDS011;6800;50.940;6.940;2024-03-22T00:50:29;20.27;;;16.03;;
13455;SDS011;6800;50.940;6.940;2024-03-22T00:54:32;22.13;;;16.00;;
13455;SDS011;6800;50.940;6.940;2024-03-22T00:58:32;21.00;;;15.77;;
13455;SDS011;6800;50.940;6.940;2024-03-22T01:02:33;21.83;;;16.73;;
13455;SDS011;6800;50.940;6.940;2024-03-22T01:06:33;20.67;;;15.97;;
13455;SDS011;6800;50.940;6.940;2024-03-22T01:10:34;21.57;;;16.50;;
13455;SDS011;6800;50.940;6.940;2024-03-22T01:14:34;21.83;;;16.03;;
13455;SDS011;6800;50.940;6.940;2024-03-22T01:18:35;21.13;;;16.07;;
13455;SDS011;6800;50.940;6.940;2024-03-22T01:22:36;19.27;;;15.80;;
13455;SDS011;6800;50.940;6.940;2024-03-22T01:26:37;21.00;;;16.23;;
13455;SDS011;6800;50.940;6.940;2024-03-22T01:30:38;20.57;;;16.27;;
13455;SDS011;6800;50.940;6.940;2024-03-22T01:34:38;19.00;;;14.93;;
13455;SDS011;6800;50.940;6.940;2024-03-22T01:38:39;18.97;;;15.90;;
13455;SDS011;6800;50.940;6.940;2024-03-22T01:42:39;19.07;;;15.90;;
13455;SDS011;6800;50.940;6.940;2024-03-22T01:46:40;19.57;;;15.80;;
13455;SDS011;6800;50.940;6.940;2024-03-22T01:50:41;20.47;;;15.47;;
13455;SDS011;6800;50.940;6.940;2024-03-22T01:54:43;20.80;;;16.03;;
13455;SDS011;6800;50.940;6.940;2024-03-22T01:58:44;18.57;;;14.57;;
13455;SDS011;6800;50.940;6.940;2024-03-22T02:02:44;19.37;;;14.90;;
13455;SDS011;6800;50.940;6.940;2024-03-22T02:06:45;20.57;;;15.47;;
13455;SDS011;6800;50.940;6.940;2024-03-22T02:10:45;18.43;;;15.80;;
13455;SDS011;6800;50.940;6.940;2024-03-22T02:14:46;19.83;;;14.97;;
13455;SDS011;6800;50.940;6.940;2024-03-22T02:18:47;17.10;;;14.70;;
13455;SDS011;6800;50.940;6.940;2024-03-22T02:22:48;16.20;;;14.23;;
13455;SDS011;6800;50.940;6.940;2024-03-22T02:26:48;18.83;;;14.37;;
13455;SDS011;6800;50.940;6.940;2024-03-22T02:30:49;16.70;;;13.80;;
13455;SDS011;6800;50.940;6.940;2024-03-22T02:34:49;16.57;;;13.83;;
13455;SDS011;6800;50.940;6.940;2024-03-22T02:38:50;16.77;;;14.07;;
13455;SDS011;6800;50.940;6.940;2024-03-22T02:42:50;17.07;;;14.27;;
13455;SDS011;6800;50.940;6.940;2024-03-22T02:46:51;17.60;;;14.27;;
13455;SDS011;6800;50.940;6.940;2024-03-22T02:50:54;17.73;;;14.50;;
13455;SDS011;6800;50.940;6.940;2024-03-22T02:54:55;16.33;;;14.40;;
13455;SDS011;6800;50.940;6.940;2024-03-22T02:58:56;18.10;;;14.17;;
13455;SDS011;6800;50.940;6.940;2024-03-22T03:02:57;17.90;;;14.87;;
13455;SDS011;6800;50.940;6.940;2024-03-22T03:06:57;17.23;;;14.67;;
13455;SDS011;6800;50.940;6.940;2024-03-22T03:10:58;17.90;;;14.13;;
13455;SDS011;6800;50.940;6.940;2024-03-22T03:14:59;17.77;;;13.43;;
13455;SDS011;6800;50.940;6.940;2024-03-22T03:18:59;15.13;;;13.33;;
13455;SDS011;6800;50.940;6.940;2024-03-22T03:23:00;17.83;;;12.77;;
13455;SDS011;6800;50.940;6.940;2024-03-22T03:27:01;17.40;;;12.50;;
13455;SDS011;6800;50.940;6.940;2024-03-22T03:31:03;16.33;;;12.40;;
13455;SDS011;6800;50.940;6.940;2024-03-22T03:35:04;17.20;;;12.23;;
13455;SDS011;6800;50.940;6.940;2024-03-22T03:39:05;15.80;;;12.53;;
13455;SDS011;6800;50.940;6.940;2024-03-22T03:43:06;15.27;;;12.13;;
13455;SDS011;6800;50.940;6.940;2024-03-22T03:47:06;14.57;;;12.07;;
13455;SDS011;6800;50.940;6.940;2024-03-22T03:51:07;12.80;;;10.67;;
13455;SDS011;6800;50.940;6.940;2024-03-22T03:55:08;13.40;;;12.10;;
13455;SDS011;6800;50.940;6.940;2024-03-22T03:59:08;14.27;;;11.37;;
13455;SDS011;6800;50.940;6.940;2024-03-22T04:03:09;12.90;;;10.70;;
13455;SDS011;6800;50.940;6.940;2024-03-22T04:07:09;14.13;;;11.30;;
13455;SDS011;6800;50.940;6.940;2024-03-22T04:11:09;12.87;;;9.90;;
13455;SDS011;6800;50.940;6.940;2024-03-22T04:15:11;14.40;;;10.67;;
13455;SDS011;6800;50.940;6.940;2024-03-22T04:19:12;14.47;;;10.83;;
13455;SDS011;6800;50.940;6.940;2024-03-22T04:23:12;13.13;;;10.37;;
13455;SDS011;6800;50.940;6.940;2024-03-22T04:27:13;10.77;;;8.90;;
13455;SDS011;6800;50.940;6.940;2024-03-22T04:31:13;13.50;;;9.90;;
13455;SDS011;6800;50.940;6.940;2024-03-22T04:35:14;12.50;;;10.77;;
13455;SDS011;6800;50.940;6.940;2024-03-22T04:39:15;13.33;;;10.00;;
13455;SDS011;6800;50.940;6.940;2024-03-22T04:43:16;14.77;;;10.87;;
13455;SDS011;6800;50.940;6.940;2024-03-22T04:47:17;12.77;;;9.30;;
13455;SDS011;6800;50.940;6.940;2024-03-22T04:51:17;11.80;;;10.13;;
13455;SDS011;6800;50.940;6.940;2024-03-22T04:55:18;13.63;;;10.23;;
13455;SDS011;6800;50.940;6.940;2024-03-22T04:59:18;12.47;;;9.80;;
13455;SDS011;6800;50.940;6.940;2024-03-22T05:03:19;13.30;;;10.40;;
13455;SDS011;6800;50.940;6.940;2024-03-22T05:07:19;13.97;;;11.23;;
13455;SDS011;6800;50.940;6.940;2024-03-22T05:11:20;12.83;;;10.63;;
13455;SDS011;6800;50.940;6.940;2024-03-22T05:15:20;12.93;;;10.97;;
13455;SDS011;6800;50.940;6.940;2024-03-22T05:19:20;14.13;;;11.10;;
13455;SDS011;6800;50.940;6.940;2024-03-22T05:23:21;13.47;;;10.77;;
13455;SDS011;6800;50.940;6.940;2024-03-22T05:27:21;15.07;;;11.00;;
13455;SDS011;6800;50.940;6.940;2024-03-22T05:31:22;14.43;;;11.40;;
13455;SDS011;6800;50.940;6.940;2024-03-22T05:35:22;14.63;;;11.20;;
13455;SDS011;6800;50.940;6.940;2024-03-22T05:39:23;13.13;;;11.10;;
13455;SDS011;6800;50.940;6.940;2024-03-22T05:43:23;13.53;;;10.63;;
13455;SDS011;6800;50.940;6.940;2024-03-22T05:47:24;14.10;;;11.80;;
13455;SDS011;6800;50.940;6.940;2024-03-22T05:51:25;13.47;;;11.00;;
13455;SDS011;6800;50.940;6.940;2024-03-22T05:55:26;23.07;;;12.77;;
13455;SDS011;6800;50.940;6.940;2024-03-22T05:59:31;14.50;;;12.03;;
13455;SDS011;6800;50.940;6.940;2024-03-22T06:03:32;16.63;;;12.13;;
13455;SDS011;6800;50.940;6.940;2024-03-22T06:07:32;15.70;;;12.60;;
13455;SDS011;6800;50.940;6.940;2024-03-22T06:11:40;14.57;;;12.63;;
13455;SDS011;6800;50.940;6.940;2024-03-22T06:15:44;16.80;;;12.07;;
13455;SDS011;6800;50.940;6.940;2024-03-22T06:19:47;17.10;;;13.47;;
13455;SDS011;6800;50.940;6.940;2024-03-22T06:23:49;15.97;;;12.17;;
13455;SDS011;6800;50.940;6.940;2024-03-22T06:27:50;14.43;;;12.13;;
13455;SDS011;6800;50.940;6.940;2024-03-22T06:31:51;15.27;;;12.97;;
13455;SDS011;6800;50.940;6.940;2024-03-22T06:35:52;17.07;;;12.23;;
13455;SDS011;6800;50.940;6.940;2024-03-22T06:39:53;14.50;;;12.23;;
13455;SDS011;6800;50.940;6.940;2024-03-22T06:43:53;16.47;;;11.90;;
13455;SDS011;6800;50.940;6.940;2024-03-22T06:47:54;13.73;;;11.70;;
13455;SDS011;6800;50.940;6.940;2024-03-22T06:51:54;14.97;;;12.37;;
13455;SDS011;6800;50.940;6.940;2024-03-22T06:55:55;18.13;;;13.07;;
13455;SDS011;6800;50.940;6.940;2024-03-22T06:59:55;14.30;;;12.43;;
13455;SDS011;6800;50.940;6.940;2024-03-22T07:03:56;19.73;;;12.57;;
13455;SDS011;6800;50.940;6.940;2024-03-22T07:07:56;13.80;;;12.33;;
13455;SDS011;6800;50.940;6.940;2024-03-22T07:11:57;15.83;;;12.83;;
13455;SDS011;6800;50.940;6.940;2024-03-22T07:15:58;15.43;;;12.43;;
13455;SDS011;6800;50.940;6.940;2024-03-22T07:19:59;16.93;;;12.00;;
13455;SDS011;6800;50.940;6.940;2024-03-22T07:23:59;16.50;;;12.47;;
13455;SDS011;6800;50.940;6.940;2024-03-22T07:28:00;14.77;;;13.27;;
13455;SDS011;6800;50.940;6.940;2024-03-22T07:32:00;17.97;;;13.73;;
13455;SDS011;6800;50.940;6.940;2024-03-22T07:36:10;17.40;;;13.77;;
13455;SDS011;6800;50.940;6.940;2024-03-22T07:40:11;17.67;;;14.90;;
13455;SDS011;6800;50.940;6.940;2024-03-22T07:44:12;17.50;;;15.33;;
13455;SDS011;6800;50.940;6.940;2024-03-22T07:48:12;23.50;;;15.27;;
13455;SDS011;6800;50.940;6.940;2024-03-22T07:52:14;20.40;;;13.83;;
13455;SDS011;6800;50.940;6.940;2024-03-22T07:56:15;17.97;;;14.47;;
13455;SDS011;6800;50.940;6.940;2024-03-22T08:00:16;20.20;;;15.10;;
13455;SDS011;6800;50.940;6.940;2024-03-22T08:04:16;18.10;;;13.63;;
13455;SDS011;6800;50.940;6.940;2024-03-22T08:08:18;15.10;;;13.10;;
13455;SDS011;6800;50.940;6.940;2024-03-22T08:12:18;16.10;;;14.20;;
13455;SDS011;6800;50.940;6.940;2024-03-22T08:16:19;16.23;;;13.60;;
13455;SDS011;6800;50.940;6.940;2024-03-22T08:20:20;16.17;;;13.27;;
13455;SDS011;6800;50.940;6.940;2024-03-22T08:24:21;17.25;;;13.38;;
13455;SDS011;6800;50.940;6.940;2024-03-22T08:28:21;20.05;;;14.07;;
13455;SDS011;6800;50.940;6.940;2024-03-22T08:32:22;15.70;;;13.18;;
13455;SDS011;6800;50.940;6.940;2024-03-22T08:36:22;17.70;;;13.70;;
13455;SDS011;6800;50.940;6.940;2024-03-22T08:40:24;16.77;;;13.45;;
13455;SDS011;6800;50.940;6.940;2024-03-22T08:44:25;14.88;;;13.35;;
13455;SDS011;6800;50.940;6.940;2024-03-22T08:48:25;16.42;;;14.48;;
13455;SDS011;6800;50.940;6.940;2024-03-22T08:52:26;17.23;;;13.35;;
13455;SDS011;6800;50.940;6.940;2024-03-22T08:56:26;14.88;;;12.82;;
13455;SDS011;6800;50.940;6.940;2024-03-22T09:00:27;15.40;;;12.68;;
13455;SDS011;6800;50.940;6.940;2024-03-22T09:04:27;12.35;;;10.63;;
13455;SDS011;6800;50.940;6.940;2024-03-22T09:08:28;12.90;;;10.55;;
13455;SDS011;6800;50.940;6.940;2024-03-22T09:12:29;11.02;;;8.27;;
13455;SDS011;6800;50.940;6.940;2024-03-22T09:16:30;9.93;;;7.75;;
13455;SDS011;6800;50.940;6.940;2024-03-22T09:20:31;9.32;;;7.45;;
13455;SDS011;6800;50.940;6.940;2024-03-22T09:24:32;9.93;;;7.85;;
13455;SDS011;6800;50.940;6.940;2024-03-22T09:28:32;8.13;;;6.88;;
13455;SDS011;6800;50.940;6.940;2024-03-22T09:32:33;11.55;;;7.30;;
13455;SDS011;6800;50.940;6.940;2024-03-22T09:36:33;8.88;;;6.90;;
13455;SDS011;6800;50.940;6.940;2024-03-22T09:40:38;10.60;;;8.65;;
13455;SDS011;6800;50.940;6.940;2024-03-22T09:44:42;5.78;;;5.20;;
13455;SDS011;6800;50.940;6.940;2024-03-22T09:48:50;9.25;;;7.15;;
13455;SDS011;6800;50.940;6.940;2024-03-22T09:52:54;7.78;;;6.68;;
13455;SDS011;6800;50.940;6.940;2024-03-22T09:56:56;10.63;;;7.47;;
13455;SDS011;6800;50.940;6.940;2024-03-22T10:00:58;7.35;;;6.55;;
13455;SDS011;6800;50.940;6.940;2024-03-22T10:05:01;10.35;;;8.43;;
13455;SDS011;6800;50.940;6.940;2024-03-22T10:09:04;7.57;;;6.05;;
13455;SDS011;6800;50.940;6.940;2024-03-22T10:13:05;9.18;;;6.13;;
13455;SDS011;6800;50.940;6.940;2024-03-22T10:17:06;9.40;;;6.50;;
13455;SDS011;6800;50.940;6.940;2024-03-22T10:21:08;7.28;;;4.78;;
13455;SDS011;6800;50.940;6.940;2024-03-22T10:25:09;12.07;;;5.65;;
13455;SDS011;6800;50.940;6.940;2024-03-22T10:29:10;7.85;;;5.75;;
13455;SDS011;6800;50.940;6.940;2024-03-22T10:33:12;11.75;;;5.40;;
13455;SDS011;6800;50.940;6.940;2024-03-22T10:37:14;9.90;;;5.82;;
13455;SDS011;6800;50.940;6.940;2024-03-22T10:41:16;9.68;;;6.13;;
13455;SDS011;6800;50.940;6.940;2024-03-22T10:45:16;6.85;;;5.50;;
13455;SDS011;6800;50.940;6.940;2024-03-22T10:49:20;10.27;;;6.05;;
13455;SDS011;6800;50.940;6.940;2024-03-22T10:53:22;7.07;;;5.68;;
13455;SDS011;6800;50.940;6.940;2024-03-22T10:57:25;9.82;;;6.47;;
13455;SDS011;6800;50.940;6.940;2024-03-22T11:01:27;11.70;;;6.95;;
13455;SDS011;6800;50.940;6.940;2024-03-22T11:05:34;9.52;;;6.82;;
13455;SDS011;6800;50.940;6.940;2024-03-22T11:09:34;7.82;;;7.03;;
13455;SDS011;6800;50.940;6.940;2024-03-22T11:13:46;11.10;;;7.93;;
13455;SDS011;6800;50.940;6.940;2024-03-22T11:17:48;10.57;;;7.60;;
13455;SDS011;6800;50.940;6.940;2024-03-22T11:21:49;11.68;;;8.45;;
13455;SDS011;6800;50.940;6.940;2024-03-22T11:25:50;12.77;;;8.13;;
13455;SDS011;6800;50.940;6.940;2024-03-22T11:29:51;8.45;;;7.65;;
13455;SDS011;6800;50.940;6.940;2024-03-22T11:33:55;8.95;;;8.00;;
13455;SDS011;6800;50.940;6.940;2024-03-22T11:37:56;11.77;;;8.32;;
13455;SDS011;6800;50.940;6.940;2024-03-22T11:41:58;12.20;;;10.65;;
13455;SDS011;6800;50.940;6.940;2024-03-22T11:45:59;10.32;;;8.07;;
13455;SDS011;6800;50.940;6.940;2024-03-22T11:50:02;13.88;;;8.35;;
13455;SDS011;6800;50.940;6.940;2024-03-22T11:54:03;9.50;;;8.50;;
13455;SDS011;6800;50.940;6.940;2024-03-22T11:58:03;11.40;;;9.18;;
13455;SDS011;6800;50.940;6.940;2024-03-22T12:02:04;9.88;;;8.70;;
13455;SDS011;6800;50.940;6.940;2024-03-22T12:06:08;12.48;;;9.63;;
13455;SDS011;6800;50.940;6.940;2024-03-22T12:10:09;11.38;;;10.18;;
13455;SDS011;6800;50.940;6.940;2024-03-22T12:14:10;10.73;;;9.23;;
13455;SDS011;6800;50.940;6.940;2024-03-22T12:18:10;10.43;;;8.30;;
13455;SDS011;6800;50.940;6.940;2024-03-22T12:22:11;11.48;;;7.78;;
13455;SDS011;6800;50.940;6.940;2024-03-22T12:26:12;10.88;;;9.48;;
13455;SDS011;6800;50.940;6.940;2024-03-22T12:30:13;11.80;;;10.50;;
13455;SDS011;6800;50.940;6.940;2024-03-22T12:34:14;11.63;;;9.82;;
13455;SDS011;6800;50.940;6.940;2024-03-22T12:38:14;11.32;;;9.85;;
13455;SDS011;6800;50.940;6.940;2024-03-22T12:42:15;12.18;;;9.68;;
13455;SDS011;6800;50.940;6.940;2024-03-22T12:46:15;10.45;;;8.98;;
13455;SDS011;6800;50.940;6.940;2024-03-22T12:50:16;10.82;;;9.15;;
13455;SDS011;6800;50.940;6.940;2024-03-22T12:54:17;12.20;;;9.20;;
13455;SDS011;6800;50.940;6.940;2024-03-22T12:58:19;11.60;;;8.25;;
13455;SDS011;6800;50.940;6.940;2024-03-22T13:02:19;10.68;;;8.00;;
13455;SDS011;6800;50.940;6.940;2024-03-22T13:06:20;10.43;;;8.30;;
13455;SDS011;6800;50.940;6.940;2024-03-22T13:10:20;11.35;;;7.95;;
13455;SDS011;6800;50.940;6.940;2024-03-22T13:14:21;9.82;;;7.78;;
13455;SDS011;6800;50.940;6.940;2024-03-22T13:18:22;9.23;;;7.90;;
13455;SDS011;6800;50.940;6.940;2024-03-22T13:22:22;10.95;;;8.20;;
13455;SDS011;6800;50.940;6.940;2024-03-22T13:26:23;11.73;;;8.65;;
13455;SDS011;6800;50.940;6.940;2024-03-22T13:30:23;13.30;;;9.05;;
13455;SDS011;6800;50.940;6.940;2024-03-22T13:34:24;10.70;;;9.38;;
13455;SDS011;6800;50.940;6.940;2024-03-22T13:38:26;11.93;;;9.60;;
13455;SDS011;6800;50.940;6.940;2024-03-22T13:42:27;11.23;;;9.48;;
13455;SDS011;6800;50.940;6.940;2024-03-22T13:46:27;12.02;;;10.68;;
13455;SDS011;6800;50.940;6.940;2024-03-22T13:50:28;11.52;;;10.15;;
13455;SDS011;6800;50.940;6.940;2024-03-22T13:54:28;12.07;;;9.90;;
13455;SDS011;6800;50.940;6.940;2024-03-22T13:58:29;14.50;;;10.95;;
13455;SDS011;6800;50.940;6.940;2024-03-22T14:02:29;11.48;;;10.30;;
13455;SDS011;6800;50.940;6.940;2024-03-22T14:06:32;12.93;;;10.80;;
13455;SDS011;6800;50.940;6.940;2024-03-22T14:10:33;10.75;;;9.65;;
13455;SDS011;6800;50.940;6.940;2024-03-22T14:14:33;14.50;;;10.18;;
13455;SDS011;6800;50.940;6.940;2024-03-22T14:18:34;13.07;;;11.30;;
13455;SDS011;6800;50.940;6.940;2024-03-22T14:22:35;11.90;;;9.75;;
13455;SDS011;6800;50.940;6.940;2024-03-22T14:26:36;12.80;;;11.10;;
13455;SDS011;6800;50.940;6.940;2024-03-22T14:30:42;11.95;;;10.48;;
13455;SDS011;6800;50.940;6.940;2024-03-22T14:34:42;13.43;;;11.57;;
13455;SDS011;6800;50.940;6.940;2024-03-22T14:38:43;11.90;;;9.70;;
13455;SDS011;6800;50.940;6.940;2024-03-22T14:42:43;12.65;;;10.30;;
13455;SDS011;6800;50.940;6.940;2024-03-22T14:46:44;11.82;;;10.00;;
13455;SDS011;6800;50.940;6.940;2024-03-22T14:50:45;16.35;;;10.43;;
13455;SDS011;6800;50.940;6.940;2024-03-22T14:54:45;12.82;;;9.48;;
13455;SDS011;6800;50.940;6.940;2024-03-22T14:58:46;12.23;;;9.65;;
13455;SDS011;6800;50.940;6.940;2024-03-22T15:02:46;12.93;;;9.98;;
13455;SDS011;6800;50.940;6.940;2024-03-22T15:06:47;12.05;;;9.77;;
13455;SDS011;6800;50.940;6.940;2024-03-22T15:10:50;21.70;;;11.48;;
13455;SDS011;6800;50.940;6.940;2024-03-22T15:14:52;12.02;;;10.73;;
13455;SDS011;6800;50.940;6.940;2024-03-22T15:18:56;12.27;;;10.77;;
13455;SDS011;6800;50.940;6.940;2024-03-22T15:22:56;16.95;;;12.35;;
13455;SDS011;6800;50.940;6.940;2024-03-22T15:26:57;16.38;;;13.55;;
13455;SDS011;6800;50.940;6.940;2024-03-22T15:30:57;15.00;;;13.20;;
13455;SDS011;6800;50.940;6.940;2024-03-22T15:34:58;15.10;;;13.52;;
13455;SDS011;6800;50.940;6.940;2024-03-22T15:38:58;15.73;;;12.82;;
13455;SDS011;6800;50.940;6.940;2024-03-22T15:42:59;17.60;;;13.93;;
13455;SDS011;6800;50.940;6.940;2024-03-22T15:47:00;19.43;;;14.27;;
13455;SDS011;6800;50.940;6.940;2024-03-22T15:51:02;16.23;;;13.50;;
13455;SDS011;6800;50.940;6.940;2024-03-22T15:55:03;15.30;;;13.70;;
13455;SDS011;6800;50.940;6.940;2024-03-22T15:59:03;15.00;;;12.77;;
13455;SDS011;6800;50.940;6.940;2024-03-22T16:03:05;15.93;;;13.90;;
13455;SDS011;6800;50.940;6.940;2024-03-22T16:07:06;14.47;;;12.87;;
13455;SDS011;6800;50.940;6.940;2024-03-22T16:11:06;16.27;;;12.43;;
13455;SDS011;6800;50.940;6.940;2024-03-22T16:15:08;14.20;;;12.90;;
13455;SDS011;6800;50.940;6.940;2024-03-22T16:19:09;15.50;;;12.17;;
13455;SDS011;6800;50.940;6.940;2024-03-22T16:23:10;17.03;;;14.30;;
13455;SDS011;6800;50.940;6.940;2024-03-22T16:27:11;13.87;;;12.47;;
13455;SDS011;6800;50.940;6.940;2024-03-22T16:31:11;15.40;;;13.60;;
13455;SDS011;6800;50.940;6.940;2024-03-22T16:35:12;24.73;;;14.57;;
13455;SDS011;6800;50.940;6.940;2024-03-22T16:39:14;17.43;;;14.47;;
13455;SDS011;6800;50.940;6.940;2024-03-22T16:43:15;18.70;;;16.33;;
13455;SDS011;6800;50.940;6.940;2024-03-22T16:47:15;18.03;;;16.23;;
13455;SDS011;6800;50.940;6.940;2024-03-22T16:51:16;20.17;;;16.60;;
13455;SDS011;6800;50.940;6.940;2024-03-22T16:55:17;19.70;;;17.27;;
13455;SDS011;6800;50.940;6.940;2024-03-22T16:59:18;22.27;;;20.00;;
13455;SDS011;6800;50.940;6.940;2024-03-22T17:03:20;21.07;;;19.07;;
13455;SDS011;6800;50.940;6.940;2024-03-22T17:07:21;22.30;;;19.90;;
13455;SDS011;6800;50.940;6.940;2024-03-22T17:11:21;22.07;;;19.93;;
13455;SDS011;6800;50.940;6.940;2024-03-22T17:15:22;22.40;;;18.40;;
13455;SDS011;6800;50.940;6.940;2024-03-22T17:19:24;20.33;;;17.47;;
13455;SDS011;6800;50.940;6.940;2024-03-22T17:23:25;20.23;;;18.00;;
13455;SDS011;6800;50.940;6.940;2024-03-22T17:27:25;20.27;;;17.87;;
13455;SDS011;6800;50.940;6.940;2024-03-22T17:31:26;18.00;;;16.13;;
13455;SDS011;6800;50.940;6.940;2024-03-22T17:35:26;21.57;;;17.13;;
13455;SDS011;6800;50.940;6.940;2024-03-22T17:39:29;19.43;;;17.23;;
13455;SDS011;6800;50.940;6.940;2024-03-22T17:43:31;18.60;;;16.80;;
13455;SDS011;6800;50.940;6.940;2024-03-22T17:47:32;18.93;;;16.93;;
13455;SDS011;6800;50.940;6.940;2024-03-22T17:51:32;20.50;;;18.40;;
13455;SDS011;6800;50.940;6.940;2024-03-22T17:55:33;20.87;;;18.57;;
13455;SDS011;6800;50.940;6.940;2024-03-22T17:59:33;19.60;;;17.40;;
13455;SDS011;6800;50.940;6.940;2024-03-22T18:03:34;22.90;;;19.10;;
13455;SDS011;6800;50.940;6.940;2024-03-22T18:07:34;22.73;;;17.50;;
13455;SDS011;6800;50.940;6.940;2024-03-22T18:11:35;23.77;;;18.83;;
13455;SDS011;6800;50.940;6.940;2024-03-22T18:15:40;19.17;;;17.27;;
13455;SDS011;6800;50.940;6.940;2024-03-22T18:19:40;19.03;;;17.13;;
13455;SDS011;6800;50.940;6.940;2024-03-22T18:23:41;18.27;;;16.37;;
13455;SDS011;6800;50.940;6.940;2024-03-22T18:27:41;16.93;;;15.20;;
13455;SDS011;6800;50.940;6.940;2024-03-22T18:31:42;15.27;;;13.67;;
13455;SDS011;6800;50.940;6.940;2024-03-22T18:35:43;14.23;;;12.87;;
13455;SDS011;6800;50.940;6.940;2024-03-22T18:39:46;15.97;;;14.07;;
13455;SDS011;6800;50.940;6.940;2024-03-22T18:43:48;14.70;;;13.30;;
13455;SDS011;6800;50.940;6.940;2024-03-22T18:47:48;14.40;;;13.00;;
13455;SDS011;6800;50.940;6.940;2024-03-22T18:51:49;14.90;;;13.40;;
13455;SDS011;6800;50.940;6.940;2024-03-22T18:55:49;13.47;;;12.17;;
13455;SDS011;6800;50.940;6.940;2024-03-22T18:59:50;13.50;;;12.30;;
13455;SDS011;6800;50.940;6.940;2024-03-22T19:03:51;13.70;;;12.50;;
13455;SDS011;6800;50.940;6.940;2024-03-22T19:07:52;13.67;;;12.37;;
13455;SDS011;6800;50.940;6.940;2024-03-22T19:11:52;13.80;;;12.50;;
13455;SDS011;6800;50.940;6.940;2024-03-22T19:15:53;13.53;;;12.23;;
13455;SDS011;6800;50.940;6.940;2024-03-22T19:19:54;14.00;;;12.70;;
13455;SDS011;6800;50.940;6.940;2024-03-22T19:23:55;13.97;;;12.60;;
13455;SDS011;6800;50.940;6.940;2024-03-22T19:27:56;13.67;;;12.23;;
13455;SDS011;6800;50.940;6.940;2024-03-22T19:31:57;14.50;;;13.00;;
13455;SDS011;6800;50.940;6.940;2024-03-22T19:35:57;13.37;;;11.97;;
13455;SDS011;6800;50.940;6.940;2024-03-22T19:39:59;12.67;;;11.37;;
13455;SDS011;6800;50.940;6.940;2024-03-22T19:44:00;13.07;;;11.87;;
13455;SDS011;6800;50.940;6.940;2024-03-22T19:48:01;12.20;;;11.00;;
13455;SDS011;6800;50.940;6.940;2024-03-22T19:52:02;12.13;;;10.93;;
13455;SDS011;6800;50.940;6.940;2024-03-22T19:56:02;12.87;;;11.60;;
13455;SDS011;6800;50.940;6.940;2024-03-22T20:00:04;10.87;;;9.87;;
13455;SDS011;6800;50.940;6.940;2024-03-22T20:04:06;10.00;;;9.20;;
13455;SDS011;6800;50.940;6.940;2024-03-22T20:08:06;9.03;;;8.23;;
13455;SDS011;6800;50.940;6.940;2024-03-22T20:12:07;8.50;;;7.70;;
13455;SDS011;6800;50.940;6.940;2024-03-22T20:16:08;8.50;;;7.80;;
13455;SDS011;6800;50.940;6.940;2024-03-22T20:20:09;8.60;;;7.80;;
13455;SDS011;6800;50.940;6.940;2024-03-22T20:24:10;9.20;;;8.30;;
13455;SDS011;6800;50.940;6.940;2024-03-22T20:28:10;14.10;;;11.93;;
13455;SDS011;6800;50.940;6.940;2024-03-22T20:32:11;14.10;;;11.70;;
13455;SDS011;6800;50.940;6.940;2024-03-22T20:36:12;13.50;;;12.20;;
